createdAt,value
2023-08-29T00:00:05.974Z,79.08
2023-08-29T00:02:44.294Z,78.66
2023-08-29T00:05:11.969Z,78.34
2023-08-29T00:07:40.090Z,77.69
2023-08-29T00:10:07.908Z,78.09
2023-08-29T00:12:35.253Z,78.40
2023-08-29T00:15:05.155Z,77.55
2023-08-29T00:17:32.883Z,78.49
2023-08-29T00:20:00.037Z,77.63
2023-08-29T00:22:27.233Z,78.42
2023-08-29T00:24:54.243Z,77.80
2023-08-29T00:27:21.354Z,77.25
2023-08-29T00:29:48.473Z,77.57
2023-08-29T00:32:15.671Z,77.65
2023-08-29T00:34:43.390Z,77.20
2023-08-29T00:37:11.857Z,77.21
2023-08-29T00:39:38.917Z,77.71
2023-08-29T00:42:06.039Z,78.36
2023-08-29T00:44:35.069Z,77.44
2023-08-29T00:47:07.157Z,77.26
2023-08-29T00:49:36.524Z,77.63
2023-08-29T00:52:04.769Z,78.37
2023-08-29T00:54:32.058Z,77.62
2023-08-29T00:56:59.885Z,78.39
2023-08-29T00:59:27.090Z,78.21
2023-08-29T01:01:54.618Z,78.15
2023-08-29T01:04:21.675Z,78.72
2023-08-29T01:06:49.009Z,79.73
2023-08-29T01:09:16.245Z,79.45
2023-08-29T01:12:00.031Z,79.62
2023-08-29T01:14:48.313Z,79.29
2023-08-29T01:17:23.957Z,80.13
2023-08-29T01:19:53.537Z,80.93
2023-08-29T01:22:35.737Z,81.59
2023-08-29T01:25:16.067Z,81.43
2023-08-29T01:27:43.286Z,81.90
2023-08-29T01:30:11.135Z,81.23
2023-08-29T01:32:39.256Z,81.09
2023-08-29T01:35:07.987Z,80.80
2023-08-29T01:37:35.068Z,80.69
2023-08-29T01:40:02.228Z,81.23
2023-08-29T01:42:30.015Z,81.02
2023-08-29T01:44:57.136Z,81.27
2023-08-29T01:47:24.474Z,80.98
2023-08-29T01:49:52.861Z,81.15
2023-08-29T01:52:19.946Z,80.72
2023-08-29T01:54:47.130Z,81.00
2023-08-29T01:57:15.785Z,81.60
2023-08-29T01:59:45.232Z,81.78
2023-08-29T02:02:14.416Z,81.55
2023-08-29T02:04:42.823Z,81.76
2023-08-29T02:07:12.244Z,82.02
2023-08-29T02:09:39.558Z,81.89
2023-08-29T02:12:06.840Z,82.51
2023-08-29T02:14:34.099Z,82.59
2023-08-29T02:17:01.341Z,82.64
2023-08-29T02:19:29.419Z,83.06
2023-08-29T02:21:56.489Z,83.04
2023-08-29T02:24:24.333Z,83.17
2023-08-29T02:26:51.761Z,83.72
2023-08-29T02:29:18.832Z,83.07
2023-08-29T02:31:46.692Z,82.83
2023-08-29T02:34:13.847Z,83.19
2023-08-29T02:36:42.013Z,82.78
2023-08-29T02:39:09.031Z,83.20
2023-08-29T02:41:38.348Z,83.38
2023-08-29T02:44:05.701Z,83.41
2023-08-29T02:46:32.886Z,83.05
2023-08-29T02:49:00.220Z,83.61
2023-08-29T02:51:27.274Z,83.26
2023-08-29T02:53:54.246Z,82.85
2023-08-29T02:56:21.392Z,82.34
2023-08-29T02:58:48.705Z,81.75
2023-08-29T03:01:16.081Z,81.37
2023-08-29T03:03:43.492Z,81.35
2023-08-29T03:06:10.668Z,81.48
2023-08-29T03:08:38.402Z,80.59
2023-08-29T03:11:05.713Z,79.90
2023-08-29T03:13:33.573Z,79.12
2023-08-29T03:16:00.908Z,78.46
2023-08-29T03:18:28.888Z,76.72
2023-08-29T03:20:57.394Z,77.78
2023-08-29T03:23:25.961Z,77.86
2023-08-29T03:26:07.031Z,78.19
2023-08-29T03:28:36.465Z,77.76
2023-08-29T03:31:14.651Z,77.94
2023-08-29T03:33:42.519Z,77.62
2023-08-29T03:36:09.977Z,77.08
2023-08-29T03:38:38.788Z,76.86
2023-08-29T03:41:07.340Z,76.59
2023-08-29T03:43:36.050Z,75.65
2023-08-29T03:46:08.349Z,76.36
2023-08-29T03:48:37.186Z,75.55
2023-08-29T03:51:08.161Z,75.18
2023-08-29T03:53:39.022Z,75.57
2023-08-29T03:56:09.940Z,74.50
2023-08-29T03:58:37.076Z,74.31
2023-08-29T04:01:07.435Z,73.81
2023-08-29T04:03:35.100Z,73.39
2023-08-29T04:06:04.730Z,72.96
2023-08-29T04:08:32.110Z,72.73
2023-08-29T04:10:59.200Z,72.49
2023-08-29T04:13:26.295Z,73.28
2023-08-29T04:15:55.549Z,72.68
2023-08-29T04:18:24.127Z,71.38
2023-08-29T04:20:51.115Z,71.44
2023-08-29T04:23:18.298Z,71.72
2023-08-29T04:25:45.948Z,71.82
2023-08-29T04:28:15.618Z,71.00
2023-08-29T04:30:42.612Z,68.91
2023-08-29T04:33:09.618Z,66.45
2023-08-29T04:35:36.711Z,63.96
2023-08-29T04:38:04.366Z,62.46
2023-08-29T04:40:31.783Z,61.10
2023-08-29T04:42:59.427Z,60.63
2023-08-29T04:45:26.388Z,60.67
2023-08-29T04:47:53.538Z,60.86
2023-08-29T04:50:21.714Z,60.96
2023-08-29T04:52:54.903Z,62.15
2023-08-29T04:55:22.601Z,62.07
2023-08-29T04:57:50.492Z,61.35
2023-08-29T05:00:17.816Z,59.65
2023-08-29T05:02:44.881Z,57.86
2023-08-29T05:05:12.381Z,55.87
2023-08-29T05:07:39.464Z,53.62
2023-08-29T05:10:08.025Z,54.15
2023-08-29T05:12:35.085Z,53.54
2023-08-29T05:15:02.121Z,51.95
2023-08-29T05:17:33.245Z,51.26
2023-08-29T05:20:00.474Z,50.63
2023-08-29T05:22:27.453Z,50.69
2023-08-29T05:24:54.452Z,50.18
2023-08-29T05:27:21.903Z,50.15
2023-08-29T05:29:48.887Z,50.43
2023-08-29T05:32:15.984Z,50.96
2023-08-29T05:34:42.994Z,51.86
2023-08-29T05:37:09.987Z,52.45
2023-08-29T05:39:36.904Z,52.88
2023-08-29T05:42:04.138Z,53.59
2023-08-29T05:44:31.174Z,53.94
2023-08-29T05:46:58.128Z,54.21
2023-08-29T05:49:25.154Z,55.34
2023-08-29T05:51:53.069Z,56.23
2023-08-29T05:54:20.148Z,56.52
2023-08-29T05:56:47.213Z,57.83
2023-08-29T05:59:14.120Z,57.59
2023-08-29T06:01:41.143Z,58.28
2023-08-29T06:04:09.411Z,58.53
2023-08-29T06:06:37.038Z,58.82
2023-08-29T06:09:04.398Z,59.40
2023-08-29T06:11:31.433Z,59.43
2023-08-29T06:13:58.410Z,60.86
2023-08-29T06:16:25.621Z,60.85
2023-08-29T06:18:52.687Z,61.58
2023-08-29T06:21:20.615Z,61.98
2023-08-29T06:23:47.764Z,61.84
2023-08-29T06:26:14.805Z,61.82
2023-08-29T06:28:42.053Z,62.27
2023-08-29T06:31:09.778Z,62.16
2023-08-29T06:33:38.391Z,61.96
2023-08-29T06:36:06.053Z,61.38
2023-08-29T06:38:35.680Z,61.61
2023-08-29T06:41:04.365Z,62.19
2023-08-29T06:43:32.009Z,62.06
2023-08-29T06:45:59.061Z,62.12
2023-08-29T06:48:26.148Z,62.02
2023-08-29T06:50:53.274Z,62.17
2023-08-29T06:53:20.392Z,62.48
2023-08-29T06:55:48.620Z,62.81
2023-08-29T06:58:15.625Z,62.53
2023-08-29T07:00:42.618Z,62.39
2023-08-29T07:03:09.832Z,63.01
2023-08-29T07:05:36.929Z,62.98
2023-08-29T07:08:05.340Z,63.10
2023-08-29T07:10:32.641Z,62.41
2023-08-29T07:12:59.886Z,62.27
2023-08-29T07:15:27.119Z,63.21
2023-08-29T07:17:55.112Z,62.54
2023-08-29T07:20:22.210Z,63.32
2023-08-29T07:22:49.503Z,63.24
2023-08-29T07:25:19.261Z,62.43
2023-08-29T07:27:47.045Z,62.71
2023-08-29T07:30:16.613Z,62.10
2023-08-29T07:32:44.842Z,62.62
2023-08-29T07:35:12.070Z,61.63
2023-08-29T07:37:39.084Z,61.27
2023-08-29T07:40:06.475Z,61.74
2023-08-29T07:42:33.475Z,62.04
2023-08-29T07:45:00.965Z,61.82
2023-08-29T07:47:27.965Z,61.72
2023-08-29T07:49:54.973Z,61.57
2023-08-29T07:52:22.037Z,61.43
2023-08-29T07:54:49.062Z,61.63
2023-08-29T07:57:15.985Z,61.49
2023-08-29T07:59:43.142Z,61.08
2023-08-29T08:02:10.271Z,60.48
2023-08-29T08:04:38.072Z,59.92
2023-08-29T08:07:05.273Z,60.08
2023-08-29T08:09:32.795Z,59.34
2023-08-29T08:11:59.879Z,58.78
2023-08-29T08:14:26.924Z,57.54
2023-08-29T08:16:53.978Z,58.70
2023-08-29T08:19:21.140Z,57.58
2023-08-29T08:21:50.851Z,57.89
2023-08-29T08:24:18.429Z,57.90
2023-08-29T08:26:45.425Z,57.34
2023-08-29T08:29:12.442Z,56.84
2023-08-29T08:31:39.561Z,57.05
2023-08-29T08:34:06.631Z,56.92
2023-08-29T08:36:33.931Z,57.01
2023-08-29T08:39:00.977Z,57.59
2023-08-29T08:41:28.328Z,58.25
2023-08-29T08:43:58.320Z,58.04
2023-08-29T08:46:25.896Z,57.96
2023-08-29T08:48:54.842Z,57.69
2023-08-29T08:51:23.859Z,57.72
2023-08-29T08:53:51.582Z,57.37
2023-08-29T08:56:18.859Z,57.34
2023-08-29T08:58:46.385Z,57.68
2023-08-29T09:01:14.400Z,57.64
2023-08-29T09:03:42.912Z,57.41
2023-08-29T09:06:14.018Z,57.00
2023-08-29T09:08:41.408Z,56.82
2023-08-29T09:11:08.517Z,56.79
2023-08-29T09:13:35.800Z,56.45
2023-08-29T09:16:03.192Z,56.87
2023-08-29T09:18:33.000Z,57.40
2023-08-29T09:21:06.000Z,57.38
2023-08-29T09:23:39.167Z,57.37
2023-08-29T09:26:06.303Z,57.18
2023-08-29T09:28:33.349Z,56.89
2023-08-29T09:31:08.345Z,56.59
2023-08-29T09:33:36.570Z,56.40
2023-08-29T09:36:05.958Z,55.99
2023-08-29T09:38:36.424Z,56.27
2023-08-29T09:41:03.734Z,55.97
2023-08-29T09:43:31.608Z,55.91
2023-08-29T09:45:59.338Z,55.99
2023-08-29T09:48:26.516Z,55.28
2023-08-29T09:50:53.581Z,54.35
2023-08-29T09:53:21.883Z,55.43
2023-08-29T09:56:11.266Z,54.49
2023-08-29T09:58:42.758Z,54.39
2023-08-29T10:01:11.956Z,54.17
2023-08-29T10:03:41.692Z,53.21
2023-08-29T10:06:11.698Z,53.00
2023-08-29T10:09:00.349Z,52.76
2023-08-29T10:11:32.439Z,52.21
2023-08-29T10:14:05.658Z,53.10
2023-08-29T10:16:33.501Z,52.50
2023-08-29T10:19:00.607Z,52.69
2023-08-29T10:21:29.379Z,53.76
2023-08-29T10:23:57.074Z,54.48
2023-08-29T10:26:26.970Z,53.54
2023-08-29T10:28:54.648Z,53.29
2023-08-29T10:31:22.039Z,52.92
2023-08-29T10:33:49.329Z,54.07
2023-08-29T10:36:17.887Z,55.22
2023-08-29T10:38:48.245Z,54.83
2023-08-29T10:41:15.884Z,54.93
2023-08-29T10:43:43.718Z,54.75
2023-08-29T10:46:15.581Z,54.58
2023-08-29T10:48:45.484Z,54.46
2023-08-29T10:51:13.289Z,54.27
2023-08-29T10:53:44.408Z,54.10
2023-08-29T10:56:11.395Z,54.52
2023-08-29T10:58:40.665Z,54.03
2023-08-29T11:01:28.437Z,53.70
2023-08-29T11:04:05.285Z,54.02
2023-08-29T11:06:52.217Z,54.28
2023-08-29T11:09:24.419Z,54.41
2023-08-29T11:12:14.114Z,54.24
2023-08-29T11:14:57.836Z,55.06
2023-08-29T11:17:26.599Z,54.92
2023-08-29T11:19:55.691Z,56.11
2023-08-29T11:22:26.998Z,55.31
2023-08-29T11:24:57.898Z,56.72
2023-08-29T11:27:30.477Z,56.28
2023-08-29T11:30:19.538Z,56.15
2023-08-29T11:32:51.931Z,55.27
2023-08-29T11:35:19.541Z,54.74
2023-08-29T11:37:46.524Z,54.25
2023-08-29T11:40:13.786Z,53.95
2023-08-29T11:43:19.240Z,53.72
2023-08-29T11:45:48.283Z,54.55
2023-08-29T11:48:25.241Z,54.06
2023-08-29T11:50:54.537Z,53.87
2023-08-29T11:53:29.245Z,53.54
2023-08-29T11:55:57.209Z,53.33
2023-08-29T11:58:34.514Z,53.30
2023-08-29T12:01:02.897Z,52.83
2023-08-29T12:03:29.974Z,53.07
2023-08-29T12:05:59.724Z,53.56
2023-08-29T12:08:44.063Z,53.23
2023-08-29T12:11:18.214Z,53.95
2023-08-29T12:14:02.048Z,53.35
2023-08-29T12:16:29.920Z,53.43
2023-08-29T12:19:13.493Z,54.30
2023-08-29T12:21:40.762Z,55.28
2023-08-29T12:24:11.818Z,55.43
2023-08-29T12:26:39.292Z,56.50
2023-08-29T12:29:06.239Z,55.77
2023-08-29T12:31:33.463Z,56.37
2023-08-29T12:34:00.506Z,56.88
2023-08-29T12:36:27.471Z,57.27
2023-08-29T12:38:54.449Z,57.88
2023-08-29T12:41:22.505Z,57.81
2023-08-29T12:43:50.338Z,57.55
2023-08-29T12:46:17.392Z,57.37
2023-08-29T12:48:46.474Z,57.38
2023-08-29T12:51:13.425Z,58.19
2023-08-29T12:53:41.301Z,58.88
2023-08-29T12:56:11.571Z,58.96
2023-08-29T12:58:39.171Z,58.74
2023-08-29T13:01:06.519Z,59.07
2023-08-29T13:03:34.088Z,59.01
2023-08-29T13:06:01.186Z,58.92
2023-08-29T13:08:28.414Z,59.32
2023-08-29T13:10:55.414Z,59.00
2023-08-29T13:13:22.532Z,59.38
2023-08-29T13:15:51.474Z,59.53
2023-08-29T13:18:19.806Z,59.37
2023-08-29T13:20:46.933Z,58.65
2023-08-29T13:23:13.998Z,58.71
2023-08-29T13:25:41.201Z,58.21
2023-08-29T13:28:08.611Z,58.52
2023-08-29T13:30:36.329Z,58.65
2023-08-29T13:33:04.789Z,58.46
2023-08-29T13:35:31.998Z,59.28
2023-08-29T13:37:59.032Z,59.09
2023-08-29T13:40:26.067Z,59.80
2023-08-29T13:42:53.619Z,59.95
2023-08-29T13:45:21.032Z,59.95
2023-08-29T13:47:48.651Z,59.52
2023-08-29T13:50:16.216Z,60.02
2023-08-29T13:52:43.337Z,59.61
2023-08-29T13:55:10.580Z,59.94
2023-08-29T13:57:37.826Z,59.78
2023-08-29T14:00:06.590Z,59.73
2023-08-29T14:02:40.792Z,59.77
2023-08-29T14:05:09.584Z,59.88
2023-08-29T14:07:37.583Z,60.33
2023-08-29T14:10:05.068Z,60.78
2023-08-29T14:12:32.258Z,61.06
2023-08-29T14:15:00.218Z,61.16
2023-08-29T14:17:28.119Z,61.45
2023-08-29T14:19:58.022Z,61.04
2023-08-29T14:22:27.317Z,61.53
2023-08-29T14:24:54.383Z,61.67
2023-08-29T14:27:21.434Z,62.01
2023-08-29T14:29:48.462Z,62.50
2023-08-29T14:32:15.426Z,61.52
2023-08-29T14:34:42.312Z,61.59
2023-08-29T14:37:11.026Z,61.16
2023-08-29T14:39:38.383Z,61.00
2023-08-29T14:42:05.671Z,61.31
2023-08-29T14:44:33.192Z,60.95
2023-08-29T14:47:00.363Z,61.32
2023-08-29T14:49:27.434Z,61.02
2023-08-29T14:51:55.409Z,61.06
2023-08-29T14:54:22.447Z,61.51
2023-08-29T14:56:49.450Z,61.56
2023-08-29T14:59:16.471Z,61.16
2023-08-29T15:01:43.567Z,61.11
2023-08-29T15:04:10.576Z,61.32
2023-08-29T15:06:37.670Z,61.81
2023-08-29T15:09:08.671Z,64.73
2023-08-29T15:11:36.106Z,66.02
2023-08-29T15:14:05.160Z,65.11
2023-08-29T15:16:32.271Z,65.48
2023-08-29T15:18:59.479Z,65.10
2023-08-29T15:21:26.573Z,66.11
2023-08-29T15:23:53.792Z,66.13
2023-08-29T15:26:20.715Z,66.74
2023-08-29T15:28:47.832Z,67.35
2023-08-29T15:31:14.984Z,68.29
2023-08-29T15:33:43.165Z,69.25
2023-08-29T15:36:11.780Z,70.00
2023-08-29T15:38:40.667Z,70.69
2023-08-29T15:41:08.102Z,71.53
2023-08-29T15:43:35.165Z,71.47
2023-08-29T15:46:02.263Z,71.51
2023-08-29T15:48:29.499Z,71.43
2023-08-29T15:50:56.540Z,72.14
2023-08-29T15:53:23.574Z,72.81
2023-08-29T15:55:50.752Z,71.95
2023-08-29T15:58:19.977Z,72.98
2023-08-29T16:00:47.097Z,72.82
2023-08-29T16:03:14.213Z,72.82
2023-08-29T16:05:41.252Z,72.97
2023-08-29T16:08:09.962Z,73.14
2023-08-29T16:10:37.192Z,73.26
2023-08-29T16:13:04.381Z,73.24
2023-08-29T16:15:31.366Z,72.99
2023-08-29T16:17:58.381Z,73.03
2023-08-29T16:20:25.448Z,72.65
2023-08-29T16:22:52.967Z,72.52
2023-08-29T16:25:20.036Z,72.64
2023-08-29T16:27:47.075Z,73.12
2023-08-29T16:30:15.358Z,73.46
2023-08-29T16:32:42.335Z,73.66
2023-08-29T16:35:10.094Z,73.76
2023-08-29T16:37:38.640Z,73.48
2023-08-29T16:40:09.193Z,73.20
2023-08-29T16:42:36.829Z,73.64
2023-08-29T16:45:05.491Z,74.53
2023-08-29T16:47:32.862Z,74.43
2023-08-29T16:49:59.905Z,74.01
2023-08-29T16:52:28.224Z,73.50
2023-08-29T16:54:55.335Z,73.35
2023-08-29T16:57:22.561Z,75.54
2023-08-29T17:00:11.518Z,75.78
2023-08-29T17:02:38.754Z,76.16
2023-08-29T17:05:06.273Z,75.36
2023-08-29T17:07:33.466Z,74.58
2023-08-29T17:10:00.976Z,74.75
2023-08-29T17:12:31.689Z,74.64
2023-08-29T17:14:59.018Z,74.60
2023-08-29T17:17:26.233Z,75.47
2023-08-29T17:19:53.568Z,77.72
2023-08-29T17:22:20.654Z,77.53
2023-08-29T17:24:47.964Z,76.66
2023-08-29T17:27:15.102Z,76.56
2023-08-29T17:29:42.335Z,77.08
2023-08-29T17:32:09.512Z,76.76
2023-08-29T17:34:38.021Z,76.89
2023-08-29T17:37:05.250Z,77.43
2023-08-29T17:39:32.341Z,77.69
2023-08-29T17:41:59.435Z,77.75
2023-08-29T17:44:26.628Z,77.87
2023-08-29T17:46:53.635Z,77.97
2023-08-29T17:49:20.646Z,78.40
2023-08-29T17:51:49.116Z,78.10
2023-08-29T17:54:16.277Z,78.80
2023-08-29T17:56:43.271Z,78.81
2023-08-29T17:59:10.236Z,79.45
2023-08-29T18:01:37.388Z,79.66
2023-08-29T18:04:08.521Z,80.03
2023-08-29T18:06:36.402Z,81.08
2023-08-29T18:09:03.764Z,81.85
2023-08-29T18:11:31.189Z,82.01
2023-08-29T18:13:58.484Z,82.16
2023-08-29T18:16:25.655Z,82.57
2023-08-29T18:18:53.029Z,82.48
2023-08-29T18:21:20.090Z,83.36
2023-08-29T18:23:47.130Z,83.56
2023-08-29T18:26:14.486Z,83.64
2023-08-29T18:28:41.895Z,83.80
2023-08-29T18:31:10.782Z,83.73
2023-08-29T18:33:37.953Z,83.86
2023-08-29T18:36:05.487Z,83.51
2023-08-29T18:38:32.855Z,83.47
2023-08-29T18:41:00.505Z,83.78
2023-08-29T18:43:28.675Z,83.93
2023-08-29T18:45:57.057Z,84.20
2023-08-29T18:48:25.287Z,84.31
2023-08-29T18:50:53.382Z,84.86
2023-08-29T18:53:23.701Z,85.02
2023-08-29T18:55:52.000Z,85.17
2023-08-29T18:58:19.805Z,85.18
2023-08-29T19:00:48.172Z,85.16
2023-08-29T19:03:16.509Z,85.47
2023-08-29T19:05:44.518Z,85.34
2023-08-29T19:08:12.649Z,85.58
2023-08-29T19:10:40.850Z,85.47
2023-08-29T19:13:08.554Z,85.90
2023-08-29T19:15:36.054Z,86.22
2023-08-29T19:18:04.674Z,86.57
2023-08-29T19:20:35.389Z,86.53
2023-08-29T19:23:02.798Z,86.88
2023-08-29T19:25:29.942Z,86.49
2023-08-29T19:27:57.559Z,86.55
2023-08-29T19:30:24.866Z,87.39
2023-08-29T19:32:52.079Z,87.97
2023-08-29T19:35:19.561Z,88.38
2023-08-29T19:37:47.279Z,89.12
2023-08-29T19:40:15.465Z,89.12
2023-08-29T19:42:42.503Z,89.00
2023-08-29T19:45:10.033Z,88.93
2023-08-29T19:47:37.188Z,88.96
2023-08-29T19:50:04.666Z,89.15
2023-08-29T19:52:32.297Z,89.15
2023-08-29T19:55:00.666Z,89.45
2023-08-29T19:57:27.942Z,89.72
2023-08-29T19:59:55.073Z,89.64
2023-08-29T20:02:22.153Z,89.67
2023-08-29T20:04:49.153Z,89.96
2023-08-29T20:07:16.248Z,90.50
2023-08-29T20:09:43.273Z,90.99
2023-08-29T20:12:10.262Z,90.92
2023-08-29T20:14:37.350Z,90.60
2023-08-29T20:17:06.402Z,90.41
2023-08-29T20:19:34.430Z,90.32
2023-08-29T20:22:01.487Z,90.41
2023-08-29T20:24:30.652Z,90.10
2023-08-29T20:26:57.638Z,90.26
2023-08-29T20:29:24.670Z,89.86
2023-08-29T20:31:51.720Z,90.63
2023-08-29T20:34:18.784Z,90.63
2023-08-29T20:36:49.107Z,90.46
2023-08-29T20:39:16.669Z,90.70
2023-08-29T20:41:43.745Z,90.64
2023-08-29T20:44:10.853Z,90.73
2023-08-29T20:46:38.170Z,91.26
2023-08-29T20:49:05.525Z,91.40
2023-08-29T20:51:34.629Z,91.48
2023-08-29T20:54:01.712Z,91.74
2023-08-29T20:56:28.828Z,92.07
2023-08-29T20:58:55.965Z,91.77
2023-08-29T21:01:22.952Z,91.39
2023-08-29T21:03:50.045Z,91.09
2023-08-29T21:06:17.400Z,91.32
2023-08-29T21:08:44.463Z,91.72
2023-08-29T21:11:11.554Z,91.20
2023-08-29T21:13:38.645Z,91.32
2023-08-29T21:16:05.736Z,91.23
2023-08-29T21:18:33.516Z,90.93
2023-08-29T21:21:02.552Z,91.64
2023-08-29T21:23:30.224Z,91.76
2023-08-29T21:25:57.335Z,92.84
2023-08-29T21:28:28.206Z,92.83
2023-08-29T21:30:56.020Z,92.94
2023-08-29T21:33:24.231Z,92.78
2023-08-29T21:35:52.273Z,92.97
2023-08-29T21:38:20.022Z,92.42
2023-08-29T21:40:47.495Z,92.33
2023-08-29T21:43:23.755Z,92.22
2023-08-29T21:45:55.888Z,92.17
2023-08-29T21:48:25.854Z,92.42
2023-08-29T21:50:53.576Z,92.30
2023-08-29T21:53:20.610Z,92.33
2023-08-29T21:55:47.776Z,92.46
2023-08-29T21:58:20.172Z,93.02
2023-08-29T22:00:52.122Z,92.57
2023-08-29T22:03:25.627Z,92.82
2023-08-29T22:05:53.600Z,92.78
2023-08-29T22:08:22.158Z,93.10
2023-08-29T22:10:49.661Z,93.65
2023-08-29T22:13:16.956Z,93.60
2023-08-29T22:15:44.156Z,93.73
2023-08-29T22:18:12.112Z,94.04
2023-08-29T22:20:39.822Z,94.28
2023-08-29T22:23:06.901Z,94.14
2023-08-29T22:25:33.987Z,94.64
2023-08-29T22:28:01.021Z,94.13
2023-08-29T22:30:28.388Z,94.08
2023-08-29T22:32:55.862Z,94.08
2023-08-29T22:35:23.078Z,94.35
2023-08-29T22:37:50.189Z,94.16
2023-08-29T22:40:18.058Z,94.43
2023-08-29T22:42:47.739Z,94.03
2023-08-29T22:45:15.284Z,94.45
2023-08-29T22:47:44.388Z,94.50
2023-08-29T22:50:11.547Z,94.98
2023-08-29T22:52:42.389Z,94.98
2023-08-29T22:55:10.427Z,95.58
2023-08-29T22:57:37.731Z,95.02
2023-08-29T23:00:07.211Z,95.06
2023-08-29T23:02:34.369Z,94.89
2023-08-29T23:05:05.806Z,94.78
2023-08-29T23:07:33.713Z,94.66
2023-08-29T23:10:00.790Z,94.63
2023-08-29T23:12:28.690Z,94.89
2023-08-29T23:14:55.888Z,95.16
2023-08-29T23:17:23.064Z,95.27
2023-08-29T23:20:09.301Z,95.36
2023-08-29T23:22:36.780Z,95.55
2023-08-29T23:25:05.826Z,95.32
2023-08-29T23:27:33.226Z,95.34
2023-08-29T23:30:00.272Z,95.11
2023-08-29T23:32:27.704Z,94.98
2023-08-29T23:34:59.200Z,95.01
2023-08-29T23:37:26.373Z,94.53
2023-08-29T23:39:53.500Z,94.27
2023-08-29T23:42:20.589Z,93.86
2023-08-29T23:44:49.459Z,94.12
2023-08-29T23:47:16.791Z,92.33
2023-08-29T23:49:43.935Z,91.40
2023-08-29T23:52:11.050Z,90.96
2023-08-29T23:54:37.955Z,90.37
2023-08-29T23:57:05.899Z,90.33
2023-08-29T23:59:32.979Z,90.23
